sensor_id;sensor_type;location;lat;lon;timestamp;P1;durP1;ratioP1;P2;durP2;ratioP2
32788;SDS011;19141;48.980;8.410;2023-04-15T04:22:36;0.90;;;0.90;;
32788;SDS011;19141;48.980;8.410;2023-04-15T04:25:05;1.30;;;1.20;;
32788;SDS011;19141;48.980;8.410;2023-04-15T04:27:32;1.30;;;1.20;;
32788;SDS011;19141;48.980;8.410;2023-04-15T04:29:58;3.15;;;1.45;;
32788;SDS011;19141;48.980;8.410;2023-04-15T04:32:23;2.80;;;1.52;;
32788;SDS011;19141;48.980;8.410;2023-04-15T04:34:49;3.53;;;1.60;;
32788;SDS011;19141;48.980;8.410;2023-04-15T04:37:14;1.67;;;1.40;;
32788;SDS011;19141;48.980;8.410;2023-04-15T04:39:40;1.63;;;1.45;;
32788;SDS011;19141;48.980;8.410;2023-04-15T04:42:05;1.65;;;1.30;;
32788;SDS011;19141;48.980;8.410;2023-04-15T04:44:31;1.65;;;1.35;;
32788;SDS011;19141;48.980;8.410;2023-04-15T04:46:56;2.05;;;1.45;;
32788;SDS011;19141;48.980;8.410;2023-04-15T04:49:21;4.35;;;1.25;;
32788;SDS011;19141;48.980;8.410;2023-04-15T04:51:47;4.28;;;1.40;;
32788;SDS011;19141;48.980;8.410;2023-04-15T04:54:13;1.35;;;1.20;;
32788;SDS011;19141;48.980;8.410;2023-04-15T04:56:38;3.63;;;1.38;;
32788;SDS011;19141;48.980;8.410;2023-04-15T04:59:04;3.03;;;1.85;;
32788;SDS011;19141;48.980;8.410;2023-04-15T05:01:29;1.85;;;0.98;;
32788;SDS011;19141;48.980;8.410;2023-04-15T05:03:54;2.08;;;1.15;;
32788;SDS011;19141;48.980;8.410;2023-04-15T05:06:20;1.20;;;1.05;;
32788;SDS011;19141;48.980;8.410;2023-04-15T05:08:46;3.03;;;1.48;;
32788;SDS011;19141;48.980;8.410;2023-04-15T05:11:12;2.50;;;1.38;;
32788;SDS011;19141;48.980;8.410;2023-04-15T05:13:37;3.05;;;1.95;;
32788;SDS011;19141;48.980;8.410;2023-04-15T05:16:05;5.55;;;1.55;;
32788;SDS011;19141;48.980;8.410;2023-04-15T05:18:31;8.85;;;1.67;;
32788;SDS011;19141;48.980;8.410;2023-04-15T05:20:57;1.55;;;1.45;;
32788;SDS011;19141;48.980;8.410;2023-04-15T05:23:23;2.55;;;1.50;;
32788;SDS011;19141;48.980;8.410;2023-04-15T05:25:48;2.38;;;1.63;;
32788;SDS011;19141;48.980;8.410;2023-04-15T05:28:14;1.52;;;1.17;;
32788;SDS011;19141;48.980;8.410;2023-04-15T05:30:39;1.20;;;1.10;;
32788;SDS011;19141;48.980;8.410;2023-04-15T05:33:05;1.27;;;1.08;;
32788;SDS011;19141;48.980;8.410;2023-04-15T05:35:30;2.03;;;1.50;;
32788;SDS011;19141;48.980;8.410;2023-04-15T05:37:56;2.08;;;1.65;;
32788;SDS011;19141;48.980;8.410;2023-04-15T05:40:21;1.58;;;1.23;;
32788;SDS011;19141;48.980;8.410;2023-04-15T05:42:47;2.15;;;1.20;;
32788;SDS011;19141;48.980;8.410;2023-04-15T05:45:13;1.58;;;1.10;;
32788;SDS011;19141;48.980;8.410;2023-04-15T05:47:38;1.35;;;1.25;;
32788;SDS011;19141;48.980;8.410;2023-04-15T05:50:03;3.45;;;1.48;;
32788;SDS011;19141;48.980;8.410;2023-04-15T05:52:30;4.70;;;1.48;;
32788;SDS011;19141;48.980;8.410;2023-04-15T05:54:56;1.52;;;1.42;;
32788;SDS011;19141;48.980;8.410;2023-04-15T05:57:21;1.42;;;1.10;;
32788;SDS011;19141;48.980;8.410;2023-04-15T05:59:47;3.80;;;1.25;;
32788;SDS011;19141;48.980;8.410;2023-04-15T06:02:13;1.15;;;0.98;;
32788;SDS011;19141;48.980;8.410;2023-04-15T06:04:38;1.83;;;1.58;;
32788;SDS011;19141;48.980;8.410;2023-04-15T06:07:04;2.92;;;1.27;;
32788;SDS011;19141;48.980;8.410;2023-04-15T06:09:29;1.45;;;1.30;;
32788;SDS011;19141;48.980;8.410;2023-04-15T06:11:55;3.38;;;2.00;;
32788;SDS011;19141;48.980;8.410;2023-04-15T06:14:21;8.65;;;4.30;;
32788;SDS011;19141;48.980;8.410;2023-04-15T06:16:47;12.70;;;5.00;;
32788;SDS011;19141;48.980;8.410;2023-04-15T06:19:12;7.15;;;4.03;;
32788;SDS011;19141;48.980;8.410;2023-04-15T06:21:38;3.17;;;2.20;;
32788;SDS011;19141;48.980;8.410;2023-04-15T06:24:04;2.40;;;1.67;;
32788;SDS011;19141;48.980;8.410;2023-04-15T06:26:29;7.20;;;3.92;;
32788;SDS011;19141;48.980;8.410;2023-04-15T06:28:55;5.00;;;3.00;;
32788;SDS011;19141;48.980;8.410;2023-04-15T06:31:21;4.68;;;3.20;;
32788;SDS011;19141;48.980;8.410;2023-04-15T06:33:47;3.50;;;2.25;;
32788;SDS011;19141;48.980;8.410;2023-04-15T06:36:13;5.15;;;3.47;;
32788;SDS011;19141;48.980;8.410;2023-04-15T06:38:38;4.70;;;2.45;;
32788;SDS011;19141;48.980;8.410;2023-04-15T06:41:03;2.60;;;1.73;;
32788;SDS011;19141;48.980;8.410;2023-04-15T06:43:29;3.03;;;2.00;;
32788;SDS011;19141;48.980;8.410;2023-04-15T06:45:55;4.60;;;2.47;;
32788;SDS011;19141;48.980;8.410;2023-04-15T06:48:21;3.25;;;2.35;;
32788;SDS011;19141;48.980;8.410;2023-04-15T06:50:48;7.32;;;5.15;;
32788;SDS011;19141;48.980;8.410;2023-04-15T06:53:13;3.92;;;2.53;;
32788;SDS011;19141;48.980;8.410;2023-04-15T06:55:39;2.47;;;1.90;;
32788;SDS011;19141;48.980;8.410;2023-04-15T06:58:05;3.85;;;2.65;;
32788;SDS011;19141;48.980;8.410;2023-04-15T07:00:31;2.83;;;2.30;;
32788;SDS011;19141;48.980;8.410;2023-04-15T07:02:58;2.83;;;1.50;;
32788;SDS011;19141;48.980;8.410;2023-04-15T07:05:24;5.57;;;3.23;;
32788;SDS011;19141;48.980;8.410;2023-04-15T07:07:50;4.05;;;2.20;;
32788;SDS011;19141;48.980;8.410;2023-04-15T07:10:15;4.68;;;3.33;;
32788;SDS011;19141;48.980;8.410;2023-04-15T07:12:41;2.58;;;1.92;;
32788;SDS011;19141;48.980;8.410;2023-04-15T07:15:06;4.55;;;1.88;;
32788;SDS011;19141;48.980;8.410;2023-04-15T07:17:32;2.60;;;1.70;;
32788;SDS011;19141;48.980;8.410;2023-04-15T07:19:58;1.83;;;1.45;;
32788;SDS011;19141;48.980;8.410;2023-04-15T07:22:23;1.92;;;1.23;;
32788;SDS011;19141;48.980;8.410;2023-04-15T07:24:49;2.90;;;1.80;;
32788;SDS011;19141;48.980;8.410;2023-04-15T07:27:14;2.25;;;1.63;;
32788;SDS011;19141;48.980;8.410;2023-04-15T07:29:40;2.05;;;1.67;;
32788;SDS011;19141;48.980;8.410;2023-04-15T07:32:06;2.72;;;1.40;;
32788;SDS011;19141;48.980;8.410;2023-04-15T07:34:31;1.52;;;1.42;;
32788;SDS011;19141;48.980;8.410;2023-04-15T07:36:57;3.78;;;1.40;;
32788;SDS011;19141;48.980;8.410;2023-04-15T07:39:22;5.03;;;1.90;;
32788;SDS011;19141;48.980;8.410;2023-04-15T07:41:47;2.15;;;1.63;;
32788;SDS011;19141;48.980;8.410;2023-04-15T07:44:13;2.75;;;1.67;;
32788;SDS011;19141;48.980;8.410;2023-04-15T07:46:38;3.67;;;1.63;;
32788;SDS011;19141;48.980;8.410;2023-04-15T07:49:04;2.88;;;1.52;;
32788;SDS011;19141;48.980;8.410;2023-04-15T07:51:29;2.90;;;1.50;;
32788;SDS011;19141;48.980;8.410;2023-04-15T07:53:56;2.33;;;1.73;;
32788;SDS011;19141;48.980;8.410;2023-04-15T07:56:21;2.75;;;1.58;;
32788;SDS011;19141;48.980;8.410;2023-04-15T07:58:47;1.95;;;1.38;;
32788;SDS011;19141;48.980;8.410;2023-04-15T08:01:12;2.25;;;1.35;;
32788;SDS011;19141;48.980;8.410;2023-04-15T08:03:38;2.22;;;1.52;;
32788;SDS011;19141;48.980;8.410;2023-04-15T08:06:03;2.78;;;1.55;;
32788;SDS011;19141;48.980;8.410;2023-04-15T08:08:29;2.95;;;1.13;;
32788;SDS011;19141;48.980;8.410;2023-04-15T08:10:55;1.02;;;0.90;;
32788;SDS011;19141;48.980;8.410;2023-04-15T08:13:20;2.00;;;1.20;;
32788;SDS011;19141;48.980;8.410;2023-04-15T08:15:52;4.20;;;2.35;;
32788;SDS011;19141;48.980;8.410;2023-04-15T08:18:37;1.08;;;0.93;;
32788;SDS011;19141;48.980;8.410;2023-04-15T08:21:03;1.77;;;1.08;;
32788;SDS011;19141;48.980;8.410;2023-04-15T08:23:28;1.90;;;1.40;;
32788;SDS011;19141;48.980;8.410;2023-04-15T08:25:54;1.42;;;1.20;;
32788;SDS011;19141;48.980;8.410;2023-04-15T08:28:19;2.35;;;1.88;;
32788;SDS011;19141;48.980;8.410;2023-04-15T08:30:45;1.52;;;1.25;;
32788;SDS011;19141;48.980;8.410;2023-04-15T08:33:10;3.70;;;2.08;;
32788;SDS011;19141;48.980;8.410;2023-04-15T08:35:36;2.45;;;1.80;;
32788;SDS011;19141;48.980;8.410;2023-04-15T08:38:02;3.63;;;2.28;;
32788;SDS011;19141;48.980;8.410;2023-04-15T08:40:27;6.38;;;1.92;;
32788;SDS011;19141;48.980;8.410;2023-04-15T08:43:04;2.20;;;1.55;;
32788;SDS011;19141;48.980;8.410;2023-04-15T08:45:39;2.08;;;1.20;;
32788;SDS011;19141;48.980;8.410;2023-04-15T08:48:06;2.92;;;1.45;;
32788;SDS011;19141;48.980;8.410;2023-04-15T08:50:37;3.70;;;1.60;;
32788;SDS011;19141;48.980;8.410;2023-04-15T08:53:03;1.63;;;1.30;;
32788;SDS011;19141;48.980;8.410;2023-04-15T08:55:31;1.60;;;1.23;;
32788;SDS011;19141;48.980;8.410;2023-04-15T08:58:00;2.20;;;1.23;;
32788;SDS011;19141;48.980;8.410;2023-04-15T09:00:27;1.83;;;1.30;;
32788;SDS011;19141;48.980;8.410;2023-04-15T09:02:53;1.75;;;1.15;;
32788;SDS011;19141;48.980;8.410;2023-04-15T09:05:20;2.55;;;1.25;;
32788;SDS011;19141;48.980;8.410;2023-04-15T09:07:47;2.10;;;1.30;;
32788;SDS011;19141;48.980;8.410;2023-04-15T09:10:14;1.90;;;1.38;;
32788;SDS011;19141;48.980;8.410;2023-04-15T09:12:39;2.20;;;1.65;;
32788;SDS011;19141;48.980;8.410;2023-04-15T09:15:05;2.33;;;1.17;;
32788;SDS011;19141;48.980;8.410;2023-04-15T09:17:36;2.83;;;1.33;;
32788;SDS011;19141;48.980;8.410;2023-04-15T09:20:10;3.03;;;1.23;;
32788;SDS011;19141;48.980;8.410;2023-04-15T09:22:41;1.85;;;1.40;;
32788;SDS011;19141;48.980;8.410;2023-04-15T09:27:55;6.53;;;1.80;;
32788;SDS011;19141;48.980;8.410;2023-04-15T09:30:22;2.15;;;1.20;;
32788;SDS011;19141;48.980;8.410;2023-04-15T09:32:51;2.33;;;1.48;;
32788;SDS011;19141;48.980;8.410;2023-04-15T09:35:21;2.38;;;1.67;;
32788;SDS011;19141;48.980;8.410;2023-04-15T09:37:48;2.00;;;1.48;;
32788;SDS011;19141;48.980;8.410;2023-04-15T09:40:29;2.65;;;1.50;;
32788;SDS011;19141;48.980;8.410;2023-04-15T09:42:59;2.90;;;1.60;;
32788;SDS011;19141;48.980;8.410;2023-04-15T09:45:26;3.58;;;1.98;;
32788;SDS011;19141;48.980;8.410;2023-04-15T09:47:52;6.75;;;3.15;;
32788;SDS011;19141;48.980;8.410;2023-04-15T09:50:18;5.70;;;2.55;;
32788;SDS011;19141;48.980;8.410;2023-04-15T09:52:44;3.97;;;2.90;;
32788;SDS011;19141;48.980;8.410;2023-04-15T09:55:10;2.25;;;1.55;;
32788;SDS011;19141;48.980;8.410;2023-04-15T09:57:37;3.17;;;1.85;;
32788;SDS011;19141;48.980;8.410;2023-04-15T10:00:05;3.83;;;1.65;;
32788;SDS011;19141;48.980;8.410;2023-04-15T10:02:34;2.80;;;1.50;;
32788;SDS011;19141;48.980;8.410;2023-04-15T10:05:00;1.95;;;1.60;;
32788;SDS011;19141;48.980;8.410;2023-04-15T10:07:27;2.08;;;1.50;;
32788;SDS011;19141;48.980;8.410;2023-04-15T10:09:52;2.22;;;1.90;;
32788;SDS011;19141;48.980;8.410;2023-04-15T10:12:19;2.67;;;1.60;;
32788;SDS011;19141;48.980;8.410;2023-04-15T10:14:52;3.15;;;1.95;;
32788;SDS011;19141;48.980;8.410;2023-04-15T10:17:22;3.22;;;1.70;;
32788;SDS011;19141;48.980;8.410;2023-04-15T10:19:53;1.90;;;1.70;;
32788;SDS011;19141;48.980;8.410;2023-04-15T10:22:18;3.00;;;1.90;;
32788;SDS011;19141;48.980;8.410;2023-04-15T10:24:44;2.15;;;1.90;;
32788;SDS011;19141;48.980;8.410;2023-04-15T10:27:11;4.10;;;2.17;;
32788;SDS011;19141;48.980;8.410;2023-04-15T10:29:38;2.28;;;1.63;;
32788;SDS011;19141;48.980;8.410;2023-04-15T10:32:04;1.50;;;1.40;;
32788;SDS011;19141;48.980;8.410;2023-04-15T10:34:30;3.75;;;2.00;;
32788;SDS011;19141;48.980;8.410;2023-04-15T10:37:02;2.35;;;1.70;;
32788;SDS011;19141;48.980;8.410;2023-04-15T10:42:04;3.03;;;1.92;;
32788;SDS011;19141;48.980;8.410;2023-04-15T10:44:31;2.17;;;1.60;;
32788;SDS011;19141;48.980;8.410;2023-04-15T10:46:57;2.22;;;1.63;;
32788;SDS011;19141;48.980;8.410;2023-04-15T10:49:23;3.08;;;2.13;;
32788;SDS011;19141;48.980;8.410;2023-04-15T10:51:51;3.20;;;2.00;;
32788;SDS011;19141;48.980;8.410;2023-04-15T10:59:36;2.70;;;1.70;;
32788;SDS011;19141;48.980;8.410;2023-04-15T11:02:03;3.05;;;1.70;;
32788;SDS011;19141;48.980;8.410;2023-04-15T11:07:40;2.63;;;2.08;;
32788;SDS011;19141;48.980;8.410;2023-04-15T11:12:37;2.75;;;2.10;;
32788;SDS011;19141;48.980;8.410;2023-04-15T11:17:55;3.33;;;1.75;;
32788;SDS011;19141;48.980;8.410;2023-04-15T11:20:32;3.47;;;1.63;;
32788;SDS011;19141;48.980;8.410;2023-04-15T11:22:58;3.92;;;2.30;;
32788;SDS011;19141;48.980;8.410;2023-04-15T11:25:27;3.17;;;1.98;;
32788;SDS011;19141;48.980;8.410;2023-04-15T11:27:54;1.45;;;1.35;;
32788;SDS011;19141;48.980;8.410;2023-04-15T11:30:21;2.72;;;1.33;;
32788;SDS011;19141;48.980;8.410;2023-04-15T11:32:52;2.00;;;1.42;;
32788;SDS011;19141;48.980;8.410;2023-04-15T11:35:39;3.33;;;1.20;;
32788;SDS011;19141;48.980;8.410;2023-04-15T11:38:09;2.30;;;1.92;;
32788;SDS011;19141;48.980;8.410;2023-04-15T11:40:37;1.50;;;1.17;;
32788;SDS011;19141;48.980;8.410;2023-04-15T11:43:04;1.50;;;1.13;;
32788;SDS011;19141;48.980;8.410;2023-04-15T11:45:56;1.50;;;1.30;;
32788;SDS011;19141;48.980;8.410;2023-04-15T11:48:22;2.08;;;1.30;;
32788;SDS011;19141;48.980;8.410;2023-04-15T11:50:53;1.45;;;1.00;;
32788;SDS011;19141;48.980;8.410;2023-04-15T11:53:19;2.60;;;1.35;;
32788;SDS011;19141;48.980;8.410;2023-04-15T11:55:45;2.70;;;1.27;;
32788;SDS011;19141;48.980;8.410;2023-04-15T12:00:38;1.92;;;1.30;;
32788;SDS011;19141;48.980;8.410;2023-04-15T12:03:17;2.60;;;1.23;;
32788;SDS011;19141;48.980;8.410;2023-04-15T12:14:15;1.52;;;1.23;;
32788;SDS011;19141;48.980;8.410;2023-04-15T12:16:49;1.77;;;1.25;;
32788;SDS011;19141;48.980;8.410;2023-04-15T12:19:21;1.08;;;0.93;;
32788;SDS011;19141;48.980;8.410;2023-04-15T12:21:49;1.73;;;1.17;;
32788;SDS011;19141;48.980;8.410;2023-04-15T12:24:18;1.70;;;1.25;;
32788;SDS011;19141;48.980;8.410;2023-04-15T12:26:46;2.00;;;1.52;;
32788;SDS011;19141;48.980;8.410;2023-04-15T12:29:14;2.67;;;1.42;;
32788;SDS011;19141;48.980;8.410;2023-04-15T12:31:48;2.10;;;1.55;;
32788;SDS011;19141;48.980;8.410;2023-04-15T12:34:15;2.72;;;1.63;;
32788;SDS011;19141;48.980;8.410;2023-04-15T12:36:41;3.85;;;1.80;;
32788;SDS011;19141;48.980;8.410;2023-04-15T12:39:07;4.30;;;1.85;;
32788;SDS011;19141;48.980;8.410;2023-04-15T12:41:33;2.72;;;1.80;;
32788;SDS011;19141;48.980;8.410;2023-04-15T12:43:59;3.90;;;1.50;;
32788;SDS011;19141;48.980;8.410;2023-04-15T12:46:25;2.80;;;1.60;;
32788;SDS011;19141;48.980;8.410;2023-04-15T12:48:51;2.97;;;1.40;;
32788;SDS011;19141;48.980;8.410;2023-04-15T12:51:17;2.17;;;1.52;;
32788;SDS011;19141;48.980;8.410;2023-04-15T12:53:43;2.30;;;1.27;;
32788;SDS011;19141;48.980;8.410;2023-04-15T12:56:08;1.80;;;1.45;;
32788;SDS011;19141;48.980;8.410;2023-04-15T12:58:34;1.67;;;1.27;;
32788;SDS011;19141;48.980;8.410;2023-04-15T13:00:59;2.17;;;1.17;;
32788;SDS011;19141;48.980;8.410;2023-04-15T13:03:24;1.33;;;1.10;;
32788;SDS011;19141;48.980;8.410;2023-04-15T13:05:50;1.88;;;1.67;;
32788;SDS011;19141;48.980;8.410;2023-04-15T13:08:16;2.20;;;1.15;;
32788;SDS011;19141;48.980;8.410;2023-04-15T13:10:43;1.13;;;1.03;;
32788;SDS011;19141;48.980;8.410;2023-04-15T13:13:08;2.33;;;1.00;;
32788;SDS011;19141;48.980;8.410;2023-04-15T13:15:34;1.00;;;0.90;;
32788;SDS011;19141;48.980;8.410;2023-04-15T13:17:59;1.70;;;1.27;;
32788;SDS011;19141;48.980;8.410;2023-04-15T13:20:25;3.28;;;1.38;;
32788;SDS011;19141;48.980;8.410;2023-04-15T13:22:51;2.55;;;1.52;;
32788;SDS011;19141;48.980;8.410;2023-04-15T13:25:17;1.88;;;1.42;;
32788;SDS011;19141;48.980;8.410;2023-04-15T13:27:43;3.10;;;1.30;;
32788;SDS011;19141;48.980;8.410;2023-04-15T13:30:08;1.10;;;1.00;;
32788;SDS011;19141;48.980;8.410;2023-04-15T13:32:34;3.45;;;1.50;;
32788;SDS011;19141;48.980;8.410;2023-04-15T13:34:59;1.40;;;1.15;;
32788;SDS011;19141;48.980;8.410;2023-04-15T13:37:28;2.28;;;1.40;;
32788;SDS011;19141;48.980;8.410;2023-04-15T13:39:54;2.67;;;1.15;;
32788;SDS011;19141;48.980;8.410;2023-04-15T13:42:20;1.90;;;1.20;;
32788;SDS011;19141;48.980;8.410;2023-04-15T13:44:46;1.42;;;1.25;;
32788;SDS011;19141;48.980;8.410;2023-04-15T13:47:12;1.80;;;1.40;;
32788;SDS011;19141;48.980;8.410;2023-04-15T13:49:39;2.28;;;1.45;;
32788;SDS011;19141;48.980;8.410;2023-04-15T13:52:04;2.25;;;1.30;;
32788;SDS011;19141;48.980;8.410;2023-04-15T13:54:30;1.73;;;1.33;;
32788;SDS011;19141;48.980;8.410;2023-04-15T13:56:55;1.58;;;1.23;;
32788;SDS011;19141;48.980;8.410;2023-04-15T13:59:22;3.80;;;1.45;;
32788;SDS011;19141;48.980;8.410;2023-04-15T14:01:47;1.90;;;1.40;;
32788;SDS011;19141;48.980;8.410;2023-04-15T14:04:13;2.20;;;1.55;;
32788;SDS011;19141;48.980;8.410;2023-04-15T14:06:39;1.60;;;1.20;;
32788;SDS011;19141;48.980;8.410;2023-04-15T14:09:05;1.83;;;1.40;;
32788;SDS011;19141;48.980;8.410;2023-04-15T14:11:30;1.65;;;1.45;;
32788;SDS011;19141;48.980;8.410;2023-04-15T14:13:56;2.17;;;1.30;;
32788;SDS011;19141;48.980;8.410;2023-04-15T14:16:21;1.50;;;1.10;;
32788;SDS011;19141;48.980;8.410;2023-04-15T14:18:47;2.25;;;1.27;;
32788;SDS011;19141;48.980;8.410;2023-04-15T14:21:12;2.90;;;1.35;;
32788;SDS011;19141;48.980;8.410;2023-04-15T14:23:37;1.83;;;1.33;;
32788;SDS011;19141;48.980;8.410;2023-04-15T14:26:03;2.30;;;1.10;;
32788;SDS011;19141;48.980;8.410;2023-04-15T14:28:29;1.67;;;1.13;;
32788;SDS011;19141;48.980;8.410;2023-04-15T14:30:54;1.70;;;1.25;;
32788;SDS011;19141;48.980;8.410;2023-04-15T14:33:20;3.28;;;1.10;;
32788;SDS011;19141;48.980;8.410;2023-04-15T14:35:45;2.55;;;1.08;;
32788;SDS011;19141;48.980;8.410;2023-04-15T14:38:10;2.42;;;0.90;;
32788;SDS011;19141;48.980;8.410;2023-04-15T14:40:36;4.50;;;1.23;;
32788;SDS011;19141;48.980;8.410;2023-04-15T14:43:02;2.33;;;1.02;;
32788;SDS011;19141;48.980;8.410;2023-04-15T14:45:27;1.67;;;0.90;;
32788;SDS011;19141;48.980;8.410;2023-04-15T14:47:54;3.53;;;0.90;;
32788;SDS011;19141;48.980;8.410;2023-04-15T14:50:20;2.50;;;0.88;;
32788;SDS011;19141;48.980;8.410;2023-04-15T14:52:45;1.25;;;1.00;;
32788;SDS011;19141;48.980;8.410;2023-04-15T14:55:11;2.05;;;0.80;;
32788;SDS011;19141;48.980;8.410;2023-04-15T14:57:37;1.98;;;0.80;;
32788;SDS011;19141;48.980;8.410;2023-04-15T15:00:04;1.50;;;0.82;;
32788;SDS011;19141;48.980;8.410;2023-04-15T15:02:31;0.77;;;0.70;;
32788;SDS011;19141;48.980;8.410;2023-04-15T15:05:00;1.48;;;1.10;;
32788;SDS011;19141;48.980;8.410;2023-04-15T15:07:26;1.38;;;1.15;;
32788;SDS011;19141;48.980;8.410;2023-04-15T15:09:52;3.05;;;0.82;;
32788;SDS011;19141;48.980;8.410;2023-04-15T15:12:17;1.58;;;0.80;;
32788;SDS011;19141;48.980;8.410;2023-04-15T15:14:43;0.95;;;0.65;;
32788;SDS011;19141;48.980;8.410;2023-04-15T15:17:08;2.17;;;0.85;;
32788;SDS011;19141;48.980;8.410;2023-04-15T15:19:34;0.52;;;0.52;;
32788;SDS011;19141;48.980;8.410;2023-04-15T15:22:00;1.30;;;0.90;;
32788;SDS011;19141;48.980;8.410;2023-04-15T15:24:25;0.60;;;0.60;;
32788;SDS011;19141;48.980;8.410;2023-04-15T15:26:50;1.45;;;0.70;;
32788;SDS011;19141;48.980;8.410;2023-04-15T15:29:16;0.50;;;0.50;;
32788;SDS011;19141;48.980;8.410;2023-04-15T15:31:41;0.63;;;0.60;;
32788;SDS011;19141;48.980;8.410;2023-04-15T15:34:06;0.52;;;0.52;;
32788;SDS011;19141;48.980;8.410;2023-04-15T15:36:32;0.85;;;0.57;;
32788;SDS011;19141;48.980;8.410;2023-04-15T15:38:57;0.65;;;0.50;;
32788;SDS011;19141;48.980;8.410;2023-04-15T15:41:23;1.10;;;0.40;;
32788;SDS011;19141;48.980;8.410;2023-04-15T15:43:50;0.82;;;0.65;;
32788;SDS011;19141;48.980;8.410;2023-04-15T15:46:15;0.63;;;0.50;;
32788;SDS011;19141;48.980;8.410;2023-04-15T15:48:41;0.47;;;0.30;;
32788;SDS011;19141;48.980;8.410;2023-04-15T15:51:07;0.68;;;0.47;;
32788;SDS011;19141;48.980;8.410;2023-04-15T15:53:32;0.60;;;0.52;;
32788;SDS011;19141;48.980;8.410;2023-04-15T15:55:58;0.30;;;0.30;;
32788;SDS011;19141;48.980;8.410;2023-04-15T15:58:23;0.30;;;0.30;;
32788;SDS011;19141;48.980;8.410;2023-04-15T16:00:49;0.50;;;0.30;;
32788;SDS011;19141;48.980;8.410;2023-04-15T16:03:14;1.42;;;0.60;;
32788;SDS011;19141;48.980;8.410;2023-04-15T16:05:40;0.17;;;0.17;;
32788;SDS011;19141;48.980;8.410;2023-04-15T16:08:05;0.52;;;0.40;;
32788;SDS011;19141;48.980;8.410;2023-04-15T16:10:30;0.30;;;0.30;;
32788;SDS011;19141;48.980;8.410;2023-04-15T16:12:56;0.40;;;0.40;;
32788;SDS011;19141;48.980;8.410;2023-04-15T16:15:23;0.40;;;0.40;;
32788;SDS011;19141;48.980;8.410;2023-04-15T16:20:15;2.03;;;1.25;;
32788;SDS011;19141;48.980;8.410;2023-04-15T16:22:40;3.42;;;1.80;;
32788;SDS011;19141;48.980;8.410;2023-04-15T16:25:06;1.23;;;0.70;;
32788;SDS011;19141;48.980;8.410;2023-04-15T16:27:31;3.83;;;1.65;;
32788;SDS011;19141;48.980;8.410;2023-04-15T16:29:57;2.00;;;1.33;;
32788;SDS011;19141;48.980;8.410;2023-04-15T16:32:23;1.52;;;0.90;;
32788;SDS011;19141;48.980;8.410;2023-04-15T16:34:48;1.77;;;1.10;;
32788;SDS011;19141;48.980;8.410;2023-04-15T16:37:14;0.77;;;0.77;;
32788;SDS011;19141;48.980;8.410;2023-04-15T16:39:39;0.65;;;0.47;;
32788;SDS011;19141;48.980;8.410;2023-04-15T16:42:05;1.02;;;0.60;;
32788;SDS011;19141;48.980;8.410;2023-04-15T16:44:31;1.27;;;0.80;;
32788;SDS011;19141;48.980;8.410;2023-04-15T16:46:57;0.80;;;0.80;;
32788;SDS011;19141;48.980;8.410;2023-04-15T16:49:22;0.80;;;0.57;;
32788;SDS011;19141;48.980;8.410;2023-04-15T16:51:48;0.45;;;0.38;;
32788;SDS011;19141;48.980;8.410;2023-04-15T16:54:13;0.88;;;0.77;;
32788;SDS011;19141;48.980;8.410;2023-04-15T16:56:39;1.27;;;0.70;;
32788;SDS011;19141;48.980;8.410;2023-04-15T16:59:04;1.10;;;0.70;;
32788;SDS011;19141;48.980;8.410;2023-04-15T17:01:29;0.95;;;0.70;;
32788;SDS011;19141;48.980;8.410;2023-04-15T17:03:55;0.57;;;0.57;;
32788;SDS011;19141;48.980;8.410;2023-04-15T17:06:20;1.00;;;0.80;;
32788;SDS011;19141;48.980;8.410;2023-04-15T17:08:46;1.65;;;1.00;;
32788;SDS011;19141;48.980;8.410;2023-04-15T17:11:11;1.75;;;1.00;;
32788;SDS011;19141;48.980;8.410;2023-04-15T17:13:37;1.15;;;0.88;;
32788;SDS011;19141;48.980;8.410;2023-04-15T17:16:02;2.03;;;1.40;;
32788;SDS011;19141;48.980;8.410;2023-04-15T17:18:28;1.20;;;1.10;;
32788;SDS011;19141;48.980;8.410;2023-04-15T17:20:54;1.92;;;1.13;;
32788;SDS011;19141;48.980;8.410;2023-04-15T17:23:20;1.25;;;0.90;;
32788;SDS011;19141;48.980;8.410;2023-04-15T17:25:45;1.13;;;1.00;;
32788;SDS011;19141;48.980;8.410;2023-04-15T17:28:12;1.95;;;1.15;;
32788;SDS011;19141;48.980;8.410;2023-04-15T17:30:37;1.33;;;0.95;;
32788;SDS011;19141;48.980;8.410;2023-04-15T17:33:03;1.75;;;1.45;;
32788;SDS011;19141;48.980;8.410;2023-04-15T17:35:28;1.40;;;1.17;;
32788;SDS011;19141;48.980;8.410;2023-04-15T17:37:55;1.33;;;1.05;;
32788;SDS011;19141;48.980;8.410;2023-04-15T17:40:20;1.75;;;1.30;;
32788;SDS011;19141;48.980;8.410;2023-04-15T17:42:46;1.38;;;1.17;;
32788;SDS011;19141;48.980;8.410;2023-04-15T17:45:11;1.20;;;0.95;;
32788;SDS011;19141;48.980;8.410;2023-04-15T17:47:36;1.48;;;1.10;;
32788;SDS011;19141;48.980;8.410;2023-04-15T17:50:02;1.73;;;1.40;;
32788;SDS011;19141;48.980;8.410;2023-04-15T17:52:27;1.27;;;1.17;;
32788;SDS011;19141;48.980;8.410;2023-04-15T17:54:53;3.95;;;2.10;;
32788;SDS011;19141;48.980;8.410;2023-04-15T17:57:19;1.80;;;1.40;;
32788;SDS011;19141;48.980;8.410;2023-04-15T17:59:45;1.85;;;1.23;;
32788;SDS011;19141;48.980;8.410;2023-04-15T18:02:11;1.67;;;1.20;;
32788;SDS011;19141;48.980;8.410;2023-04-15T18:04:38;2.33;;;1.50;;
32788;SDS011;19141;48.980;8.410;2023-04-15T18:07:04;3.15;;;1.80;;
32788;SDS011;19141;48.980;8.410;2023-04-15T18:09:30;2.00;;;1.60;;
32788;SDS011;19141;48.980;8.410;2023-04-15T18:11:55;2.65;;;1.67;;
32788;SDS011;19141;48.980;8.410;2023-04-15T18:14:21;1.58;;;1.30;;
32788;SDS011;19141;48.980;8.410;2023-04-15T18:16:47;1.67;;;1.40;;
32788;SDS011;19141;48.980;8.410;2023-04-15T18:19:13;1.90;;;1.40;;
32788;SDS011;19141;48.980;8.410;2023-04-15T18:21:39;3.17;;;1.92;;
32788;SDS011;19141;48.980;8.410;2023-04-15T18:24:05;2.15;;;1.45;;
32788;SDS011;19141;48.980;8.410;2023-04-15T18:26:31;1.77;;;1.50;;
32788;SDS011;19141;48.980;8.410;2023-04-15T18:28:56;1.67;;;1.40;;
32788;SDS011;19141;48.980;8.410;2023-04-15T18:31:22;2.03;;;1.75;;
32788;SDS011;19141;48.980;8.410;2023-04-15T18:33:47;3.35;;;1.48;;
32788;SDS011;19141;48.980;8.410;2023-04-15T18:36:13;2.97;;;1.75;;
32788;SDS011;19141;48.980;8.410;2023-04-15T18:38:38;1.75;;;1.17;;
32788;SDS011;19141;48.980;8.410;2023-04-15T18:41:04;1.80;;;1.33;;
32788;SDS011;19141;48.980;8.410;2023-04-15T18:43:30;1.45;;;1.25;;
32788;SDS011;19141;48.980;8.410;2023-04-15T18:45:56;2.75;;;1.80;;
32788;SDS011;19141;48.980;8.410;2023-04-15T18:48:22;1.70;;;1.38;;
32788;SDS011;19141;48.980;8.410;2023-04-15T18:50:47;1.92;;;1.50;;
32788;SDS011;19141;48.980;8.410;2023-04-15T18:53:13;2.10;;;1.67;;
32788;SDS011;19141;48.980;8.410;2023-04-15T18:55:38;3.50;;;1.90;;
32788;SDS011;19141;48.980;8.410;2023-04-15T18:58:05;2.03;;;1.50;;
32788;SDS011;19141;48.980;8.410;2023-04-15T19:00:31;2.97;;;1.98;;
32788;SDS011;19141;48.980;8.410;2023-04-15T19:02:56;1.45;;;1.30;;
32788;SDS011;19141;48.980;8.410;2023-04-15T19:05:22;3.97;;;1.55;;
32788;SDS011;19141;48.980;8.410;2023-04-15T19:07:48;3.90;;;2.40;;
32788;SDS011;19141;48.980;8.410;2023-04-15T19:10:14;3.40;;;2.60;;
32788;SDS011;19141;48.980;8.410;2023-04-15T19:12:39;2.92;;;1.42;;
32788;SDS011;19141;48.980;8.410;2023-04-15T19:15:05;2.70;;;1.80;;
32788;SDS011;19141;48.980;8.410;2023-04-15T19:17:31;2.63;;;1.88;;
32788;SDS011;19141;48.980;8.410;2023-04-15T19:19:57;2.90;;;2.05;;
32788;SDS011;19141;48.980;8.410;2023-04-15T19:22:22;2.85;;;1.85;;
32788;SDS011;19141;48.980;8.410;2023-04-15T19:24:49;3.40;;;2.42;;
32788;SDS011;19141;48.980;8.410;2023-04-15T19:27:15;4.03;;;2.67;;
32788;SDS011;19141;48.980;8.410;2023-04-15T19:29:41;5.57;;;2.88;;
32788;SDS011;19141;48.980;8.410;2023-04-15T19:32:06;7.70;;;3.33;;
32788;SDS011;19141;48.980;8.410;2023-04-15T19:34:32;2.40;;;1.85;;
32788;SDS011;19141;48.980;8.410;2023-04-15T19:36:57;7.40;;;3.63;;